sensor_id;sensor_type;location;lat;lon;timestamp;pressure;altitude;pressure_sealevel;temperature;humidity
62122;BME280;48108;47.532;19.084;2023-06-05T03:53:31;100723.84;;;16.87;87.05
62122;BME280;48108;47.532;19.084;2023-06-05T03:56:34;100728.25;;;16.88;87.17
62122;BME280;48108;47.532;19.084;2023-06-05T03:59:38;100733.47;;;16.89;87.16
62122;BME280;48108;47.532;19.084;2023-06-05T04:02:42;100736.16;;;16.96;87.26
62122;BME280;48108;47.532;19.084;2023-06-05T04:05:46;100737.41;;;17.07;87.37
62122;BME280;48108;47.532;19.084;2023-06-05T04:08:49;100745.56;;;17.20;87.18
62122;BME280;48108;47.532;19.084;2023-06-05T04:11:52;100732.75;;;17.34;85.61
62122;BME280;48108;47.532;19.084;2023-06-05T04:14:56;100734.81;;;17.45;85.56
62122;BME280;48108;47.532;19.084;2023-06-05T04:18:01;100733.91;;;17.58;85.98
62122;BME280;48108;47.532;19.084;2023-06-05T04:21:04;100735.97;;;17.69;85.60
62122;BME280;48108;47.532;19.084;2023-06-05T04:24:10;100739.31;;;17.84;84.42
62122;BME280;48108;47.532;19.084;2023-06-05T04:27:13;100731.87;;;17.98;83.59
62122;BME280;48108;47.532;19.084;2023-06-05T04:30:17;100732.25;;;18.08;83.18
62122;BME280;48108;47.532;19.084;2023-06-05T04:33:21;100735.91;;;18.27;82.86
62122;BME280;48108;47.532;19.084;2023-06-05T04:36:26;100731.41;;;18.40;81.65
62122;BME280;48108;47.532;19.084;2023-06-05T04:39:29;100734.38;;;18.63;80.72
62122;BME280;48108;47.532;19.084;2023-06-05T04:42:33;100727.19;;;18.75;78.76
62122;BME280;48108;47.532;19.084;2023-06-05T04:45:36;100730.81;;;18.63;79.01
62122;BME280;48108;47.532;19.084;2023-06-05T04:48:39;100736.31;;;18.88;76.92
62122;BME280;48108;47.532;19.084;2023-06-05T04:51:42;100730.16;;;18.92;76.35
62122;BME280;48108;47.532;19.084;2023-06-05T04:54:47;100737.16;;;19.07;75.15
62122;BME280;48108;47.532;19.084;2023-06-05T04:57:50;100731.31;;;19.03;75.02
62122;BME280;48108;47.532;19.084;2023-06-05T05:00:54;100739.31;;;19.05;75.57
62122;BME280;48108;47.532;19.084;2023-06-05T05:03:57;100734.41;;;18.88;75.83
62122;BME280;48108;47.532;19.084;2023-06-05T05:07:01;100738.22;;;19.06;75.25
62122;BME280;48108;47.532;19.084;2023-06-05T05:10:04;100730.44;;;19.09;74.24
62122;BME280;48108;47.532;19.084;2023-06-05T05:13:08;100740.16;;;19.23;74.21
62122;BME280;48108;47.532;19.084;2023-06-05T05:16:11;100734.09;;;19.40;72.50
62122;BME280;48108;47.532;19.084;2023-06-05T05:19:14;100737.03;;;19.57;70.15
62122;BME280;48108;47.532;19.084;2023-06-05T05:22:19;100730.69;;;19.63;68.86
62122;BME280;48108;47.532;19.084;2023-06-05T05:25:23;100733.69;;;19.91;69.43
62122;BME280;48108;47.532;19.084;2023-06-05T05:28:26;100730.06;;;20.09;66.49
62122;BME280;48108;47.532;19.084;2023-06-05T05:31:29;100734.19;;;20.00;66.82
62122;BME280;48108;47.532;19.084;2023-06-05T05:34:32;100739.19;;;20.03;66.20
62122;BME280;48108;47.532;19.084;2023-06-05T05:37:36;100734.56;;;19.74;66.93
62122;BME280;48108;47.532;19.084;2023-06-05T05:40:39;100739.31;;;19.97;67.43
62122;BME280;48108;47.532;19.084;2023-06-05T05:43:42;100740.38;;;19.96;66.27
62122;BME280;48108;47.532;19.084;2023-06-05T05:46:46;100740.53;;;20.01;64.99
62122;BME280;48108;47.532;19.084;2023-06-05T05:49:50;100733.97;;;20.02;63.46
62122;BME280;48108;47.532;19.084;2023-06-05T05:52:53;100744.91;;;20.02;64.04
62122;BME280;48108;47.532;19.084;2023-06-05T05:55:56;100746.56;;;20.03;63.91
62122;BME280;48108;47.532;19.084;2023-06-05T05:58:58;100750.94;;;20.22;64.36
62122;BME280;48108;47.532;19.084;2023-06-05T06:02:01;100746.91;;;20.25;63.46
62122;BME280;48108;47.532;19.084;2023-06-05T06:05:11;100747.97;;;20.24;63.33
62122;BME280;48108;47.532;19.084;2023-06-05T06:08:15;100745.03;;;20.37;63.53
62122;BME280;48108;47.532;19.084;2023-06-05T06:11:19;100742.31;;;20.37;62.92
62122;BME280;48108;47.532;19.084;2023-06-05T06:14:22;100743.47;;;20.59;62.85
62122;BME280;48108;47.532;19.084;2023-06-05T06:17:28;100736.94;;;20.72;63.33
62122;BME280;48108;47.532;19.084;2023-06-05T06:23:35;100744.78;;;20.80;63.68
62122;BME280;48108;47.532;19.084;2023-06-05T06:26:38;100750.41;;;20.97;62.58
62122;BME280;48108;47.532;19.084;2023-06-05T06:29:49;100740.75;;;21.06;61.85
62122;BME280;48108;47.532;19.084;2023-06-05T06:32:56;100734.34;;;21.01;60.61
62122;BME280;48108;47.532;19.084;2023-06-05T06:36:01;100740.03;;;21.23;60.06
62122;BME280;48108;47.532;19.084;2023-06-05T06:39:04;100726.47;;;21.40;59.77
62122;BME280;48108;47.532;19.084;2023-06-05T06:42:08;100730.28;;;21.39;59.98
62122;BME280;48108;47.532;19.084;2023-06-05T06:45:14;100724.81;;;21.39;60.57
62122;BME280;48108;47.532;19.084;2023-06-05T06:48:17;100725.88;;;21.38;60.47
62122;BME280;48108;47.532;19.084;2023-06-05T06:51:21;100726.06;;;21.60;60.45
62122;BME280;48108;47.532;19.084;2023-06-05T06:54:27;100723.19;;;21.66;60.10
62122;BME280;48108;47.532;19.084;2023-06-05T06:57:30;100718.00;;;21.53;58.55
62122;BME280;48108;47.532;19.084;2023-06-05T07:00:33;100730.12;;;21.34;57.89
62122;BME280;48108;47.532;19.084;2023-06-05T07:03:37;100721.25;;;21.38;58.18
62122;BME280;48108;47.532;19.084;2023-06-05T07:06:40;100731.34;;;21.14;58.41
62122;BME280;48108;47.532;19.084;2023-06-05T07:09:45;100730.62;;;21.19;58.97
62122;BME280;48108;47.532;19.084;2023-06-05T07:12:48;100724.91;;;21.20;58.85
62122;BME280;48108;47.532;19.084;2023-06-05T07:15:51;100734.06;;;21.14;56.84
62122;BME280;48108;47.532;19.084;2023-06-05T07:18:54;100729.56;;;21.20;55.35
62122;BME280;48108;47.532;19.084;2023-06-05T07:21:59;100730.38;;;21.20;56.65
62122;BME280;48108;47.532;19.084;2023-06-05T07:25:02;100728.37;;;21.16;55.26
62122;BME280;48108;47.532;19.084;2023-06-05T07:28:10;100731.59;;;21.13;54.93
62122;BME280;48108;47.532;19.084;2023-06-05T07:31:16;100732.06;;;20.98;55.29
62122;BME280;48108;47.532;19.084;2023-06-05T07:34:21;100739.81;;;21.01;55.11
62122;BME280;48108;47.532;19.084;2023-06-05T07:37:25;100738.37;;;21.10;55.47
62122;BME280;48108;47.532;19.084;2023-06-05T07:40:27;100743.72;;;21.17;54.78
62122;BME280;48108;47.532;19.084;2023-06-05T07:43:30;100738.59;;;21.20;55.00
62122;BME280;48108;47.532;19.084;2023-06-05T07:46:34;100741.94;;;21.11;55.43
62122;BME280;48108;47.532;19.084;2023-06-05T07:49:37;100743.97;;;21.15;55.20
62122;BME280;48108;47.532;19.084;2023-06-05T07:52:40;100745.63;;;20.93;54.34
62122;BME280;48108;47.532;19.084;2023-06-05T07:55:43;100743.38;;;20.90;55.31
62122;BME280;48108;47.532;19.084;2023-06-05T07:58:46;100741.13;;;20.98;55.62
62122;BME280;48108;47.532;19.084;2023-06-05T08:01:49;100741.34;;;21.09;54.85
62122;BME280;48108;47.532;19.084;2023-06-05T08:04:52;100739.81;;;21.13;54.34
62122;BME280;48108;47.532;19.084;2023-06-05T08:07:55;100745.84;;;21.03;55.04
62122;BME280;48108;47.532;19.084;2023-06-05T08:10:58;100741.81;;;20.94;55.79
62122;BME280;48108;47.532;19.084;2023-06-05T08:14:01;100741.25;;;20.92;55.72
62122;BME280;48108;47.532;19.084;2023-06-05T08:17:06;100740.50;;;21.08;55.49
62122;BME280;48108;47.532;19.084;2023-06-05T08:20:09;100733.84;;;21.16;54.85
62122;BME280;48108;47.532;19.084;2023-06-05T08:23:14;100738.59;;;21.20;54.77
62122;BME280;48108;47.532;19.084;2023-06-05T08:26:20;100740.75;;;21.18;53.89
62122;BME280;48108;47.532;19.084;2023-06-05T08:29:24;100744.19;;;21.25;54.68
62122;BME280;48108;47.532;19.084;2023-06-05T08:32:27;100744.31;;;21.31;54.83
62122;BME280;48108;47.532;19.084;2023-06-05T08:35:30;100744.31;;;21.31;54.54
62122;BME280;48108;47.532;19.084;2023-06-05T08:38:34;100737.88;;;21.25;55.15
62122;BME280;48108;47.532;19.084;2023-06-05T08:41:42;100740.16;;;21.40;55.78
62122;BME280;48108;47.532;19.084;2023-06-05T08:44:46;100745.87;;;21.50;56.10
62122;BME280;48108;47.532;19.084;2023-06-05T08:48:05;100737.38;;;21.63;55.57
62122;BME280;48108;47.532;19.084;2023-06-05T08:51:10;100742.06;;;21.51;55.53
62122;BME280;48108;47.532;19.084;2023-06-05T08:54:17;100737.47;;;21.68;55.27
62122;BME280;48108;47.532;19.084;2023-06-05T08:57:21;100740.03;;;21.46;56.28
62122;BME280;48108;47.532;19.084;2023-06-05T09:00:25;100735.34;;;21.70;55.75
62122;BME280;48108;47.532;19.084;2023-06-05T09:03:28;100737.69;;;21.79;55.29
62122;BME280;48108;47.532;19.084;2023-06-05T09:06:31;100737.41;;;21.92;56.00
62122;BME280;48108;47.532;19.084;2023-06-05T09:09:35;100737.03;;;22.00;55.29
62122;BME280;48108;47.532;19.084;2023-06-05T09:12:59;100731.53;;;22.29;54.53
62122;BME280;48108;47.532;19.084;2023-06-05T09:16:02;100728.41;;;22.54;55.26
62122;BME280;48108;47.532;19.084;2023-06-05T09:19:05;100732.59;;;22.73;55.49
62122;BME280;48108;47.532;19.084;2023-06-05T09:22:10;100728.16;;;23.06;52.96
62122;BME280;48108;47.532;19.084;2023-06-05T09:25:13;100721.34;;;23.08;52.96
62122;BME280;48108;47.532;19.084;2023-06-05T09:28:17;100727.00;;;23.41;52.16
62122;BME280;48108;47.532;19.084;2023-06-05T09:31:20;100718.13;;;23.77;51.72
62122;BME280;48108;47.532;19.084;2023-06-05T09:34:25;100723.62;;;24.27;50.40
62122;BME280;48108;47.532;19.084;2023-06-05T09:37:33;100714.91;;;24.08;48.88
62122;BME280;48108;47.532;19.084;2023-06-05T09:40:38;100723.97;;;24.62;48.15
62122;BME280;48108;47.532;19.084;2023-06-05T09:43:41;100725.00;;;24.51;48.25
62122;BME280;48108;47.532;19.084;2023-06-05T09:47:07;100725.63;;;25.01;48.04
62122;BME280;48108;47.532;19.084;2023-06-05T09:50:22;100730.62;;;25.04;44.97
62122;BME280;48108;47.532;19.084;2023-06-05T09:53:30;100724.16;;;25.25;45.68
62122;BME280;48108;47.532;19.084;2023-06-05T09:56:34;100726.09;;;25.25;46.68
62122;BME280;48108;47.532;19.084;2023-06-05T09:59:54;100725.34;;;25.40;43.97
62122;BME280;48108;47.532;19.084;2023-06-05T10:02:58;100723.19;;;25.52;43.11
62122;BME280;48108;47.532;19.084;2023-06-05T10:06:04;100720.75;;;25.71;43.47
62122;BME280;48108;47.532;19.084;2023-06-05T10:09:14;100707.44;;;25.42;43.84
62122;BME280;48108;47.532;19.084;2023-06-05T10:12:18;100711.00;;;26.21;42.48
62122;BME280;48108;47.532;19.084;2023-06-05T10:15:22;100695.56;;;26.56;41.48
62122;BME280;48108;47.532;19.084;2023-06-05T10:18:26;100692.75;;;26.15;41.40
62122;BME280;48108;47.532;19.084;2023-06-05T10:21:29;100699.44;;;26.85;40.50
62122;BME280;48108;47.532;19.084;2023-06-05T10:24:35;100687.53;;;26.08;40.57
62122;BME280;48108;47.532;19.084;2023-06-05T10:28:00;100677.87;;;26.46;40.51
62122;BME280;48108;47.532;19.084;2023-06-05T10:37:47;100672.56;;;27.81;37.47
62122;BME280;48108;47.532;19.084;2023-06-05T10:40:55;100674.63;;;28.50;35.66
62122;BME280;48108;47.532;19.084;2023-06-05T10:43:58;100662.84;;;29.16;35.87
62122;BME280;48108;47.532;19.084;2023-06-05T10:50:36;100657.53;;;29.87;28.87
62122;BME280;48108;47.532;19.084;2023-06-05T10:53:45;100647.47;;;29.91;26.94
62122;BME280;48108;47.532;19.084;2023-06-05T11:00:05;100650.37;;;31.53;26.21
62122;BME280;48108;47.532;19.084;2023-06-05T11:03:14;100651.44;;;31.43;25.10
62122;BME280;48108;47.532;19.084;2023-06-05T11:06:16;100655.75;;;30.94;25.89
62122;BME280;48108;47.532;19.084;2023-06-05T11:09:20;100650.37;;;30.84;26.34
62122;BME280;48108;47.532;19.084;2023-06-05T11:12:23;100649.78;;;30.87;25.12
62122;BME280;48108;47.532;19.084;2023-06-05T11:15:40;100649.28;;;30.52;26.86
62122;BME280;48108;47.532;19.084;2023-06-05T11:18:43;100646.94;;;30.73;27.26
62122;BME280;48108;47.532;19.084;2023-06-05T11:22:07;100646.78;;;30.97;27.00
62122;BME280;48108;47.532;19.084;2023-06-05T11:28:37;100641.78;;;31.77;26.69
62122;BME280;48108;47.532;19.084;2023-06-05T11:31:40;100640.94;;;31.76;25.98
62122;BME280;48108;47.532;19.084;2023-06-05T11:34:46;100638.53;;;32.65;26.75
62122;BME280;48108;47.532;19.084;2023-06-05T11:38:27;100646.50;;;32.35;26.70
62122;BME280;48108;47.532;19.084;2023-06-05T11:41:29;100637.84;;;31.92;26.37
62122;BME280;48108;47.532;19.084;2023-06-05T11:44:33;100630.84;;;31.94;26.40
62122;BME280;48108;47.532;19.084;2023-06-05T11:47:38;100632.09;;;32.33;26.16
62122;BME280;48108;47.532;19.084;2023-06-05T11:51:02;100628.38;;;33.75;24.01
62122;BME280;48108;47.532;19.084;2023-06-05T11:54:05;100620.50;;;33.59;24.15
62122;BME280;48108;47.532;19.084;2023-06-05T11:57:10;100624.41;;;33.50;25.09
62122;BME280;48108;47.532;19.084;2023-06-05T12:00:15;100612.22;;;34.41;24.02
62122;BME280;48108;47.532;19.084;2023-06-05T12:03:25;100606.63;;;34.50;23.18
62122;BME280;48108;47.532;19.084;2023-06-05T12:06:31;100604.34;;;34.90;23.17
62122;BME280;48108;47.532;19.084;2023-06-05T12:09:34;100601.44;;;34.78;23.33
62122;BME280;48108;47.532;19.084;2023-06-05T12:12:50;100598.22;;;34.50;23.22
62122;BME280;48108;47.532;19.084;2023-06-05T12:15:58;100603.00;;;32.88;24.86
62122;BME280;48108;47.532;19.084;2023-06-05T12:19:03;100598.81;;;32.99;25.17
62122;BME280;48108;47.532;19.084;2023-06-05T12:22:18;100590.19;;;31.93;26.22
62122;BME280;48108;47.532;19.084;2023-06-05T12:25:22;100585.03;;;31.87;26.78
62122;BME280;48108;47.532;19.084;2023-06-05T12:28:25;100584.41;;;32.66;25.68
62122;BME280;48108;47.532;19.084;2023-06-05T12:31:36;100580.13;;;32.06;26.15
62122;BME280;48108;47.532;19.084;2023-06-05T12:34:47;100579.53;;;31.36;27.18
62122;BME280;48108;47.532;19.084;2023-06-05T12:38:05;100572.00;;;31.96;26.66
62122;BME280;48108;47.532;19.084;2023-06-05T12:41:11;100573.31;;;31.53;27.02
62122;BME280;48108;47.532;19.084;2023-06-05T12:44:14;100571.06;;;31.42;27.00
62122;BME280;48108;47.532;19.084;2023-06-05T12:47:17;100567.56;;;31.72;27.62
62122;BME280;48108;47.532;19.084;2023-06-05T12:50:20;100560.28;;;30.85;27.56
62122;BME280;48108;47.532;19.084;2023-06-05T12:53:24;100560.47;;;30.75;27.80
62122;BME280;48108;47.532;19.084;2023-06-05T12:56:28;100551.41;;;30.97;28.36
62122;BME280;48108;47.532;19.084;2023-06-05T12:59:32;100557.25;;;30.40;27.46
62122;BME280;48108;47.532;19.084;2023-06-05T13:02:35;100549.31;;;30.00;28.17
62122;BME280;48108;47.532;19.084;2023-06-05T13:05:39;100545.63;;;30.52;28.47
62122;BME280;48108;47.532;19.084;2023-06-05T13:08:42;100546.69;;;30.97;26.84
62122;BME280;48108;47.532;19.084;2023-06-05T13:11:45;100547.56;;;31.20;26.68
62122;BME280;48108;47.532;19.084;2023-06-05T13:14:48;100537.31;;;30.93;26.75
62122;BME280;48108;47.532;19.084;2023-06-05T13:17:51;100540.53;;;30.86;27.04
62122;BME280;48108;47.532;19.084;2023-06-05T13:20:54;100540.06;;;30.05;27.66
62122;BME280;48108;47.532;19.084;2023-06-05T13:23:57;100542.72;;;29.96;27.31
62122;BME280;48108;47.532;19.084;2023-06-05T13:26:59;100535.75;;;29.80;27.65
62122;BME280;48108;47.532;19.084;2023-06-05T13:30:03;100537.72;;;29.60;27.86
62122;BME280;48108;47.532;19.084;2023-06-05T13:33:06;100535.00;;;29.93;27.96
62122;BME280;48108;47.532;19.084;2023-06-05T13:36:09;100532.75;;;29.95;26.70
62122;BME280;48108;47.532;19.084;2023-06-05T13:39:14;100528.97;;;30.05;27.03
62122;BME280;48108;47.532;19.084;2023-06-05T13:42:17;100526.94;;;29.40;27.54
62122;BME280;48108;47.532;19.084;2023-06-05T13:45:21;100522.97;;;29.08;28.29
62122;BME280;48108;47.532;19.084;2023-06-05T13:48:24;100527.44;;;29.42;28.09
62122;BME280;48108;47.532;19.084;2023-06-05T13:51:27;100524.16;;;29.21;27.96
62122;BME280;48108;47.532;19.084;2023-06-05T13:54:30;100521.69;;;29.38;28.46
62122;BME280;48108;47.532;19.084;2023-06-05T13:57:32;100518.25;;;29.47;28.23
62122;BME280;48108;47.532;19.084;2023-06-05T14:00:35;100519.59;;;29.11;28.49
62122;BME280;48108;47.532;19.084;2023-06-05T14:03:38;100526.66;;;28.75;29.09
62122;BME280;48108;47.532;19.084;2023-06-05T14:06:41;100520.75;;;28.33;29.30
62122;BME280;48108;47.532;19.084;2023-06-05T14:09:47;100508.34;;;28.25;29.88
62122;BME280;48108;47.532;19.084;2023-06-05T14:12:51;100509.06;;;28.12;30.10
62122;BME280;48108;47.532;19.084;2023-06-05T14:15:55;100508.66;;;27.95;30.11
62122;BME280;48108;47.532;19.084;2023-06-05T14:18:57;100508.25;;;28.12;31.19
62122;BME280;48108;47.532;19.084;2023-06-05T14:22:00;100504.44;;;27.68;30.98
62122;BME280;48108;47.532;19.084;2023-06-05T14:25:03;100505.25;;;27.69;31.10
62122;BME280;48108;47.532;19.084;2023-06-05T14:28:08;100499.69;;;27.34;31.49
62122;BME280;48108;47.532;19.084;2023-06-05T14:31:13;100503.50;;;27.83;30.99
62122;BME280;48108;47.532;19.084;2023-06-05T14:34:16;100500.59;;;27.64;31.22
62122;BME280;48108;47.532;19.084;2023-06-05T14:37:19;100495.50;;;27.42;31.36
62122;BME280;48108;47.532;19.084;2023-06-05T14:40:22;100490.09;;;27.27;31.38
62122;BME280;48108;47.532;19.084;2023-06-05T14:43:25;100493.06;;;27.35;31.54
62122;BME280;48108;47.532;19.084;2023-06-05T14:46:29;100489.72;;;27.39;30.82
62122;BME280;48108;47.532;19.084;2023-06-05T14:49:32;100496.22;;;27.19;31.53
62122;BME280;48108;47.532;19.084;2023-06-05T14:52:35;100485.94;;;27.29;31.25
62122;BME280;48108;47.532;19.084;2023-06-05T14:55:38;100490.69;;;27.13;31.14
62122;BME280;48108;47.532;19.084;2023-06-05T14:58:41;100490.16;;;27.17;31.62
62122;BME280;48108;47.532;19.084;2023-06-05T15:01:44;100481.56;;;27.23;30.73
62122;BME280;48108;47.532;19.084;2023-06-05T15:04:47;100485.00;;;26.95;31.23
62122;BME280;48108;47.532;19.084;2023-06-05T15:07:50;100491.28;;;27.05;31.41
62122;BME280;48108;47.532;19.084;2023-06-05T15:10:53;100483.97;;;26.80;31.31
62122;BME280;48108;47.532;19.084;2023-06-05T15:13:55;100489.00;;;26.68;31.84
62122;BME280;48108;47.532;19.084;2023-06-05T15:16:58;100479.03;;;26.72;31.00
62122;BME280;48108;47.532;19.084;2023-06-05T15:20:03;100481.88;;;26.52;32.03
62122;BME280;48108;47.532;19.084;2023-06-05T15:23:08;100476.38;;;26.41;32.46
62122;BME280;48108;47.532;19.084;2023-06-05T15:26:18;100470.34;;;26.14;32.54
62122;BME280;48108;47.532;19.084;2023-06-05T15:29:21;100478.59;;;26.29;32.72
62122;BME280;48108;47.532;19.084;2023-06-05T15:32:23;100469.78;;;26.27;32.86
62122;BME280;48108;47.532;19.084;2023-06-05T15:35:27;100465.66;;;26.14;33.21
62122;BME280;48108;47.532;19.084;2023-06-05T15:38:30;100462.06;;;26.14;32.81
62122;BME280;48108;47.532;19.084;2023-06-05T15:41:33;100464.28;;;26.12;32.51
62122;BME280;48108;47.532;19.084;2023-06-05T15:44:38;100453.28;;;25.96;33.16
62122;BME280;48108;47.532;19.084;2023-06-05T15:47:41;100454.94;;;25.97;33.02
62122;BME280;48108;47.532;19.084;2023-06-05T15:50:44;100456.84;;;26.07;32.98
62122;BME280;48108;47.532;19.084;2023-06-05T15:53:48;100455.22;;;26.01;33.39
62122;BME280;48108;47.532;19.084;2023-06-05T15:57:08;100456.84;;;26.07;33.29
